sensor_id;sensor_type;location;lat;lon;timestamp;P1;durP1;ratioP1;P2;durP2;ratioP2
76127;SDS011;64873;50.102;14.434;2024-03-22T00:01:43;15.85;;;9.32;;
76127;SDS011;64873;50.102;14.434;2024-03-22T00:04:10;14.02;;;8.65;;
76127;SDS011;64873;50.102;14.434;2024-03-22T00:06:35;16.13;;;9.85;;
76127;SDS011;64873;50.102;14.434;2024-03-22T00:09:01;15.40;;;10.07;;
76127;SDS011;64873;50.102;14.434;2024-03-22T00:11:26;14.00;;;9.38;;
76127;SDS011;64873;50.102;14.434;2024-03-22T00:13:52;16.92;;;9.65;;
76127;SDS011;64873;50.102;14.434;2024-03-22T00:16:17;18.42;;;10.73;;
76127;SDS011;64873;50.102;14.434;2024-03-22T00:18:42;19.50;;;10.98;;
76127;SDS011;64873;50.102;14.434;2024-03-22T00:21:08;15.98;;;9.70;;
76127;SDS011;64873;50.102;14.434;2024-03-22T00:23:33;16.60;;;10.02;;
76127;SDS011;64873;50.102;14.434;2024-03-22T00:25:59;14.98;;;9.27;;
76127;SDS011;64873;50.102;14.434;2024-03-22T00:28:25;14.57;;;8.88;;
76127;SDS011;64873;50.102;14.434;2024-03-22T00:30:50;16.98;;;10.35;;
76127;SDS011;64873;50.102;14.434;2024-03-22T00:33:15;18.73;;;10.35;;
76127;SDS011;64873;50.102;14.434;2024-03-22T00:35:41;17.85;;;10.48;;
76127;SDS011;64873;50.102;14.434;2024-03-22T00:38:06;17.42;;;10.30;;
76127;SDS011;64873;50.102;14.434;2024-03-22T00:40:31;16.60;;;10.35;;
76127;SDS011;64873;50.102;14.434;2024-03-22T00:42:57;19.75;;;10.48;;
76127;SDS011;64873;50.102;14.434;2024-03-22T00:45:23;17.38;;;10.90;;
76127;SDS011;64873;50.102;14.434;2024-03-22T00:47:48;17.15;;;10.18;;
76127;SDS011;64873;50.102;14.434;2024-03-22T00:50:14;17.77;;;10.48;;
76127;SDS011;64873;50.102;14.434;2024-03-22T00:52:39;17.48;;;10.80;;
76127;SDS011;64873;50.102;14.434;2024-03-22T00:55:04;23.30;;;11.27;;
76127;SDS011;64873;50.102;14.434;2024-03-22T00:57:30;18.10;;;11.02;;
76127;SDS011;64873;50.102;14.434;2024-03-22T00:59:56;17.85;;;10.32;;
76127;SDS011;64873;50.102;14.434;2024-03-22T01:02:21;16.13;;;9.75;;
76127;SDS011;64873;50.102;14.434;2024-03-22T01:04:47;18.48;;;10.80;;
76127;SDS011;64873;50.102;14.434;2024-03-22T01:07:13;18.77;;;10.85;;
76127;SDS011;64873;50.102;14.434;2024-03-22T01:09:38;16.05;;;9.85;;
76127;SDS011;64873;50.102;14.434;2024-03-22T01:12:04;18.92;;;11.25;;
76127;SDS011;64873;50.102;14.434;2024-03-22T01:14:30;16.27;;;10.68;;
76127;SDS011;64873;50.102;14.434;2024-03-22T01:16:55;15.15;;;9.27;;
76127;SDS011;64873;50.102;14.434;2024-03-22T01:19:21;29.70;;;10.85;;
76127;SDS011;64873;50.102;14.434;2024-03-22T01:21:47;16.67;;;9.57;;
76127;SDS011;64873;50.102;14.434;2024-03-22T01:24:13;19.38;;;10.23;;
76127;SDS011;64873;50.102;14.434;2024-03-22T01:26:38;17.15;;;10.38;;
76127;SDS011;64873;50.102;14.434;2024-03-22T01:29:04;18.60;;;11.38;;
76127;SDS011;64873;50.102;14.434;2024-03-22T01:31:29;16.27;;;10.52;;
76127;SDS011;64873;50.102;14.434;2024-03-22T01:33:55;21.00;;;10.52;;
76127;SDS011;64873;50.102;14.434;2024-03-22T01:36:20;16.95;;;10.68;;
76127;SDS011;64873;50.102;14.434;2024-03-22T01:38:45;17.25;;;10.30;;
76127;SDS011;64873;50.102;14.434;2024-03-22T01:41:11;18.88;;;10.95;;
76127;SDS011;64873;50.102;14.434;2024-03-22T01:43:36;19.63;;;11.93;;
76127;SDS011;64873;50.102;14.434;2024-03-22T01:46:01;16.58;;;10.82;;
76127;SDS011;64873;50.102;14.434;2024-03-22T01:48:27;17.15;;;10.35;;
76127;SDS011;64873;50.102;14.434;2024-03-22T01:50:52;17.17;;;10.70;;
76127;SDS011;64873;50.102;14.434;2024-03-22T01:53:18;16.90;;;10.43;;
76127;SDS011;64873;50.102;14.434;2024-03-22T01:55:44;17.45;;;10.07;;
76127;SDS011;64873;50.102;14.434;2024-03-22T01:58:09;15.85;;;9.52;;
76127;SDS011;64873;50.102;14.434;2024-03-22T02:00:37;15.32;;;9.23;;
76127;SDS011;64873;50.102;14.434;2024-03-22T02:03:03;14.60;;;9.48;;
76127;SDS011;64873;50.102;14.434;2024-03-22T02:05:28;17.05;;;10.30;;
76127;SDS011;64873;50.102;14.434;2024-03-22T02:07:54;18.17;;;9.63;;
76127;SDS011;64873;50.102;14.434;2024-03-22T02:10:19;16.20;;;9.57;;
76127;SDS011;64873;50.102;14.434;2024-03-22T02:12:45;17.30;;;9.52;;
76127;SDS011;64873;50.102;14.434;2024-03-22T02:15:10;15.32;;;9.75;;
76127;SDS011;64873;50.102;14.434;2024-03-22T02:17:36;15.57;;;9.65;;
76127;SDS011;64873;50.102;14.434;2024-03-22T02:20:02;17.65;;;10.05;;
76127;SDS011;64873;50.102;14.434;2024-03-22T02:22:29;15.18;;;8.85;;
76127;SDS011;64873;50.102;14.434;2024-03-22T02:24:54;15.75;;;9.43;;
76127;SDS011;64873;50.102;14.434;2024-03-22T02:27:20;17.15;;;9.40;;
76127;SDS011;64873;50.102;14.434;2024-03-22T02:29:45;13.77;;;8.55;;
76127;SDS011;64873;50.102;14.434;2024-03-22T02:32:11;15.10;;;9.27;;
76127;SDS011;64873;50.102;14.434;2024-03-22T02:34:37;15.05;;;9.02;;
76127;SDS011;64873;50.102;14.434;2024-03-22T02:37:03;15.93;;;8.40;;
76127;SDS011;64873;50.102;14.434;2024-03-22T02:39:28;15.50;;;8.43;;
76127;SDS011;64873;50.102;14.434;2024-03-22T02:41:54;13.40;;;8.70;;
76127;SDS011;64873;50.102;14.434;2024-03-22T02:44:19;15.60;;;9.63;;
76127;SDS011;64873;50.102;14.434;2024-03-22T02:46:45;16.20;;;9.80;;
76127;SDS011;64873;50.102;14.434;2024-03-22T02:49:10;14.00;;;8.77;;
76127;SDS011;64873;50.102;14.434;2024-03-22T02:51:36;14.63;;;8.40;;
76127;SDS011;64873;50.102;14.434;2024-03-22T02:54:01;17.33;;;9.95;;
76127;SDS011;64873;50.102;14.434;2024-03-22T02:56:27;16.30;;;8.82;;
76127;SDS011;64873;50.102;14.434;2024-03-22T02:58:53;13.93;;;8.55;;
76127;SDS011;64873;50.102;14.434;2024-03-22T03:01:18;14.43;;;8.32;;
76127;SDS011;64873;50.102;14.434;2024-03-22T03:03:44;20.60;;;9.50;;
76127;SDS011;64873;50.102;14.434;2024-03-22T03:06:09;18.30;;;9.25;;
76127;SDS011;64873;50.102;14.434;2024-03-22T03:08:38;16.23;;;9.38;;
76127;SDS011;64873;50.102;14.434;2024-03-22T03:11:03;13.32;;;8.20;;
76127;SDS011;64873;50.102;14.434;2024-03-22T03:13:29;18.20;;;8.95;;
76127;SDS011;64873;50.102;14.434;2024-03-22T03:15:54;13.82;;;8.65;;
76127;SDS011;64873;50.102;14.434;2024-03-22T03:18:19;16.48;;;9.48;;
76127;SDS011;64873;50.102;14.434;2024-03-22T03:20:45;16.77;;;8.18;;
76127;SDS011;64873;50.102;14.434;2024-03-22T03:23:10;14.38;;;8.70;;
76127;SDS011;64873;50.102;14.434;2024-03-22T03:25:35;15.93;;;9.25;;
76127;SDS011;64873;50.102;14.434;2024-03-22T03:28:01;14.75;;;8.95;;
76127;SDS011;64873;50.102;14.434;2024-03-22T03:30:26;15.70;;;9.07;;
76127;SDS011;64873;50.102;14.434;2024-03-22T03:32:52;14.18;;;8.77;;
76127;SDS011;64873;50.102;14.434;2024-03-22T03:35:17;15.88;;;9.88;;
76127;SDS011;64873;50.102;14.434;2024-03-22T03:37:42;15.20;;;9.60;;
76127;SDS011;64873;50.102;14.434;2024-03-22T03:40:08;17.75;;;10.30;;
76127;SDS011;64873;50.102;14.434;2024-03-22T03:42:33;19.70;;;10.75;;
76127;SDS011;64873;50.102;14.434;2024-03-22T03:44:59;17.95;;;10.50;;
76127;SDS011;64873;50.102;14.434;2024-03-22T03:47:24;17.23;;;10.55;;
76127;SDS011;64873;50.102;14.434;2024-03-22T03:49:49;16.80;;;10.35;;
76127;SDS011;64873;50.102;14.434;2024-03-22T03:52:15;17.30;;;10.55;;
76127;SDS011;64873;50.102;14.434;2024-03-22T03:54:40;17.70;;;10.63;;
76127;SDS011;64873;50.102;14.434;2024-03-22T03:57:06;17.00;;;9.93;;
76127;SDS011;64873;50.102;14.434;2024-03-22T03:59:31;15.60;;;9.65;;
76127;SDS011;64873;50.102;14.434;2024-03-22T04:01:56;14.90;;;9.45;;
76127;SDS011;64873;50.102;14.434;2024-03-22T04:04:22;17.25;;;10.18;;
76127;SDS011;64873;50.102;14.434;2024-03-22T04:06:47;15.65;;;8.52;;
76127;SDS011;64873;50.102;14.434;2024-03-22T04:09:13;13.18;;;8.57;;
76127;SDS011;64873;50.102;14.434;2024-03-22T04:11:38;14.95;;;9.60;;
76127;SDS011;64873;50.102;14.434;2024-03-22T04:14:04;14.50;;;8.95;;
76127;SDS011;64873;50.102;14.434;2024-03-22T04:16:30;16.40;;;8.35;;
76127;SDS011;64873;50.102;14.434;2024-03-22T04:18:56;15.07;;;9.85;;
76127;SDS011;64873;50.102;14.434;2024-03-22T04:21:21;15.48;;;9.10;;
76127;SDS011;64873;50.102;14.434;2024-03-22T04:23:50;13.38;;;8.93;;
76127;SDS011;64873;50.102;14.434;2024-03-22T04:26:15;16.08;;;9.45;;
76127;SDS011;64873;50.102;14.434;2024-03-22T04:28:40;11.55;;;7.72;;
76127;SDS011;64873;50.102;14.434;2024-03-22T04:31:07;14.02;;;8.57;;
76127;SDS011;64873;50.102;14.434;2024-03-22T04:33:34;16.48;;;9.20;;
76127;SDS011;64873;50.102;14.434;2024-03-22T04:36:00;14.13;;;9.20;;
76127;SDS011;64873;50.102;14.434;2024-03-22T04:38:26;14.13;;;9.18;;
76127;SDS011;64873;50.102;14.434;2024-03-22T04:40:52;13.63;;;8.38;;
76127;SDS011;64873;50.102;14.434;2024-03-22T04:43:20;12.50;;;8.45;;
76127;SDS011;64873;50.102;14.434;2024-03-22T04:45:46;13.35;;;8.45;;
76127;SDS011;64873;50.102;14.434;2024-03-22T04:48:12;13.82;;;8.13;;
76127;SDS011;64873;50.102;14.434;2024-03-22T04:50:40;13.85;;;8.27;;
76127;SDS011;64873;50.102;14.434;2024-03-22T04:53:06;13.18;;;8.98;;
76127;SDS011;64873;50.102;14.434;2024-03-22T04:55:31;16.08;;;8.30;;
76127;SDS011;64873;50.102;14.434;2024-03-22T04:58:01;12.50;;;8.48;;
76127;SDS011;64873;50.102;14.434;2024-03-22T05:00:27;12.38;;;7.53;;
76127;SDS011;64873;50.102;14.434;2024-03-22T05:02:53;12.27;;;7.00;;
76127;SDS011;64873;50.102;14.434;2024-03-22T05:05:18;10.25;;;6.63;;
76127;SDS011;64873;50.102;14.434;2024-03-22T05:07:44;10.77;;;6.45;;
76127;SDS011;64873;50.102;14.434;2024-03-22T05:10:10;9.90;;;6.13;;
76127;SDS011;64873;50.102;14.434;2024-03-22T05:12:36;8.45;;;5.93;;
76127;SDS011;64873;50.102;14.434;2024-03-22T05:15:02;10.52;;;5.75;;
76127;SDS011;64873;50.102;14.434;2024-03-22T05:17:28;8.07;;;5.55;;
76127;SDS011;64873;50.102;14.434;2024-03-22T05:19:56;9.27;;;5.75;;
76127;SDS011;64873;50.102;14.434;2024-03-22T05:22:22;9.13;;;5.43;;
76127;SDS011;64873;50.102;14.434;2024-03-22T05:24:47;7.75;;;5.07;;
76127;SDS011;64873;50.102;14.434;2024-03-22T05:27:13;8.88;;;5.13;;
76127;SDS011;64873;50.102;14.434;2024-03-22T05:29:38;8.65;;;5.43;;
76127;SDS011;64873;50.102;14.434;2024-03-22T05:32:04;8.00;;;4.68;;
76127;SDS011;64873;50.102;14.434;2024-03-22T05:34:29;7.82;;;5.45;;
76127;SDS011;64873;50.102;14.434;2024-03-22T05:36:55;9.00;;;5.03;;
76127;SDS011;64873;50.102;14.434;2024-03-22T05:39:20;7.32;;;5.03;;
76127;SDS011;64873;50.102;14.434;2024-03-22T05:41:46;14.63;;;5.30;;
76127;SDS011;64873;50.102;14.434;2024-03-22T05:44:11;9.52;;;5.50;;
76127;SDS011;64873;50.102;14.434;2024-03-22T05:46:37;8.82;;;5.32;;
76127;SDS011;64873;50.102;14.434;2024-03-22T05:49:02;7.40;;;4.70;;
76127;SDS011;64873;50.102;14.434;2024-03-22T05:51:27;10.27;;;4.57;;
76127;SDS011;64873;50.102;14.434;2024-03-22T05:53:55;11.63;;;4.18;;
76127;SDS011;64873;50.102;14.434;2024-03-22T05:56:21;11.40;;;4.90;;
76127;SDS011;64873;50.102;14.434;2024-03-22T05:58:46;6.72;;;4.22;;
76127;SDS011;64873;50.102;14.434;2024-03-22T06:01:12;8.43;;;4.60;;
76127;SDS011;64873;50.102;14.434;2024-03-22T06:03:37;8.38;;;4.50;;
76127;SDS011;64873;50.102;14.434;2024-03-22T06:06:03;9.32;;;4.88;;
76127;SDS011;64873;50.102;14.434;2024-03-22T06:08:28;7.05;;;4.32;;
76127;SDS011;64873;50.102;14.434;2024-03-22T06:10:56;10.00;;;4.85;;
76127;SDS011;64873;50.102;14.434;2024-03-22T06:13:22;7.20;;;4.28;;
76127;SDS011;64873;50.102;14.434;2024-03-22T06:15:48;7.53;;;4.50;;
76127;SDS011;64873;50.102;14.434;2024-03-22T06:18:14;7.68;;;4.20;;
76127;SDS011;64873;50.102;14.434;2024-03-22T06:20:39;10.98;;;4.85;;
76127;SDS011;64873;50.102;14.434;2024-03-22T06:23:05;8.52;;;4.75;;
76127;SDS011;64873;50.102;14.434;2024-03-22T06:25:31;9.70;;;4.68;;
76127;SDS011;64873;50.102;14.434;2024-03-22T06:27:56;7.45;;;4.72;;
76127;SDS011;64873;50.102;14.434;2024-03-22T06:30:21;7.05;;;4.43;;
76127;SDS011;64873;50.102;14.434;2024-03-22T06:32:47;7.60;;;4.75;;
76127;SDS011;64873;50.102;14.434;2024-03-22T06:35:12;7.28;;;4.53;;
76127;SDS011;64873;50.102;14.434;2024-03-22T06:37:39;7.72;;;4.57;;
76127;SDS011;64873;50.102;14.434;2024-03-22T06:40:06;8.88;;;4.63;;
76127;SDS011;64873;50.102;14.434;2024-03-22T06:42:32;8.75;;;4.78;;
76127;SDS011;64873;50.102;14.434;2024-03-22T06:44:57;7.20;;;4.57;;
76127;SDS011;64873;50.102;14.434;2024-03-22T06:47:23;6.65;;;4.32;;
76127;SDS011;64873;50.102;14.434;2024-03-22T06:49:48;10.48;;;4.30;;
76127;SDS011;64873;50.102;14.434;2024-03-22T06:52:14;7.40;;;4.50;;
76127;SDS011;64873;50.102;14.434;2024-03-22T06:54:40;7.32;;;4.00;;
76127;SDS011;64873;50.102;14.434;2024-03-22T06:57:06;9.93;;;3.75;;
76127;SDS011;64873;50.102;14.434;2024-03-22T06:59:31;6.22;;;3.78;;
76127;SDS011;64873;50.102;14.434;2024-03-22T07:01:57;7.78;;;4.40;;
76127;SDS011;64873;50.102;14.434;2024-03-22T07:04:22;7.25;;;3.90;;
76127;SDS011;64873;50.102;14.434;2024-03-22T07:06:48;6.63;;;3.53;;
76127;SDS011;64873;50.102;14.434;2024-03-22T07:09:13;6.20;;;3.67;;
76127;SDS011;64873;50.102;14.434;2024-03-22T07:11:39;6.03;;;3.33;;
76127;SDS011;64873;50.102;14.434;2024-03-22T07:14:04;5.63;;;3.42;;
76127;SDS011;64873;50.102;14.434;2024-03-22T07:16:30;6.40;;;3.90;;
76127;SDS011;64873;50.102;14.434;2024-03-22T07:18:55;7.35;;;3.38;;
76127;SDS011;64873;50.102;14.434;2024-03-22T07:21:20;9.98;;;3.58;;
76127;SDS011;64873;50.102;14.434;2024-03-22T07:23:46;7.35;;;3.30;;
76127;SDS011;64873;50.102;14.434;2024-03-22T07:26:11;5.88;;;3.28;;
76127;SDS011;64873;50.102;14.434;2024-03-22T07:28:37;9.00;;;3.42;;
76127;SDS011;64873;50.102;14.434;2024-03-22T07:31:02;8.60;;;4.03;;
76127;SDS011;64873;50.102;14.434;2024-03-22T07:33:28;8.20;;;4.72;;
76127;SDS011;64873;50.102;14.434;2024-03-22T07:35:53;9.27;;;4.20;;
76127;SDS011;64873;50.102;14.434;2024-03-22T07:38:19;7.03;;;3.67;;
76127;SDS011;64873;50.102;14.434;2024-03-22T07:40:45;7.82;;;4.20;;
76127;SDS011;64873;50.102;14.434;2024-03-22T07:43:11;6.13;;;3.35;;
76127;SDS011;64873;50.102;14.434;2024-03-22T07:45:38;6.07;;;3.28;;
76127;SDS011;64873;50.102;14.434;2024-03-22T07:48:04;8.45;;;3.90;;
76127;SDS011;64873;50.102;14.434;2024-03-22T07:50:29;6.28;;;3.70;;
76127;SDS011;64873;50.102;14.434;2024-03-22T07:52:55;8.48;;;3.80;;
76127;SDS011;64873;50.102;14.434;2024-03-22T07:55:20;6.80;;;3.60;;
76127;SDS011;64873;50.102;14.434;2024-03-22T07:57:46;6.07;;;3.53;;
76127;SDS011;64873;50.102;14.434;2024-03-22T08:00:12;11.07;;;3.55;;
76127;SDS011;64873;50.102;14.434;2024-03-22T08:02:37;12.68;;;3.90;;
76127;SDS011;64873;50.102;14.434;2024-03-22T08:05:03;6.35;;;3.67;;
76127;SDS011;64873;50.102;14.434;2024-03-22T08:07:29;8.82;;;3.88;;
76127;SDS011;64873;50.102;14.434;2024-03-22T08:09:54;7.15;;;4.05;;
76127;SDS011;64873;50.102;14.434;2024-03-22T08:12:21;11.07;;;4.70;;
76127;SDS011;64873;50.102;14.434;2024-03-22T08:14:46;6.97;;;4.25;;
76127;SDS011;64873;50.102;14.434;2024-03-22T08:17:12;7.00;;;3.88;;
76127;SDS011;64873;50.102;14.434;2024-03-22T08:19:37;8.88;;;3.72;;
76127;SDS011;64873;50.102;14.434;2024-03-22T08:22:03;10.00;;;4.00;;
76127;SDS011;64873;50.102;14.434;2024-03-22T08:24:29;11.73;;;4.30;;
76127;SDS011;64873;50.102;14.434;2024-03-22T08:26:54;7.93;;;4.22;;
76127;SDS011;64873;50.102;14.434;2024-03-22T08:29:20;9.18;;;4.68;;
76127;SDS011;64873;50.102;14.434;2024-03-22T08:31:46;8.63;;;4.38;;
76127;SDS011;64873;50.102;14.434;2024-03-22T08:34:12;9.98;;;4.10;;
76127;SDS011;64873;50.102;14.434;2024-03-22T08:36:37;11.77;;;5.00;;
76127;SDS011;64873;50.102;14.434;2024-03-22T08:39:03;11.80;;;5.20;;
76127;SDS011;64873;50.102;14.434;2024-03-22T08:41:30;7.97;;;4.63;;
76127;SDS011;64873;50.102;14.434;2024-03-22T08:43:55;8.93;;;4.70;;
76127;SDS011;64873;50.102;14.434;2024-03-22T08:46:22;10.55;;;5.97;;
76127;SDS011;64873;50.102;14.434;2024-03-22T08:48:49;8.00;;;4.85;;
76127;SDS011;64873;50.102;14.434;2024-03-22T08:51:15;9.40;;;4.88;;
76127;SDS011;64873;50.102;14.434;2024-03-22T08:53:40;10.57;;;4.93;;
76127;SDS011;64873;50.102;14.434;2024-03-22T08:56:06;13.45;;;5.78;;
76127;SDS011;64873;50.102;14.434;2024-03-22T08:58:31;7.47;;;4.88;;
76127;SDS011;64873;50.102;14.434;2024-03-22T09:00:56;9.73;;;4.57;;
76127;SDS011;64873;50.102;14.434;2024-03-22T09:03:22;7.57;;;3.65;;
76127;SDS011;64873;50.102;14.434;2024-03-22T09:05:47;11.68;;;5.00;;
76127;SDS011;64873;50.102;14.434;2024-03-22T09:08:17;10.23;;;5.78;;
76127;SDS011;64873;50.102;14.434;2024-03-22T09:10:42;8.88;;;5.28;;
76127;SDS011;64873;50.102;14.434;2024-03-22T09:13:07;10.80;;;6.78;;
76127;SDS011;64873;50.102;14.434;2024-03-22T09:15:34;11.55;;;5.28;;
76127;SDS011;64873;50.102;14.434;2024-03-22T09:18:00;10.30;;;6.18;;
76127;SDS011;64873;50.102;14.434;2024-03-22T09:20:26;10.55;;;5.60;;
76127;SDS011;64873;50.102;14.434;2024-03-22T09:22:52;9.43;;;5.15;;
76127;SDS011;64873;50.102;14.434;2024-03-22T09:25:17;7.13;;;4.68;;
76127;SDS011;64873;50.102;14.434;2024-03-22T09:27:43;9.57;;;5.10;;
76127;SDS011;64873;50.102;14.434;2024-03-22T09:30:09;10.77;;;5.43;;
76127;SDS011;64873;50.102;14.434;2024-03-22T09:32:35;9.40;;;4.95;;
76127;SDS011;64873;50.102;14.434;2024-03-22T09:35:00;9.25;;;5.25;;
76127;SDS011;64873;50.102;14.434;2024-03-22T09:37:26;9.57;;;5.15;;
76127;SDS011;64873;50.102;14.434;2024-03-22T09:39:51;8.40;;;4.93;;
76127;SDS011;64873;50.102;14.434;2024-03-22T09:42:17;8.50;;;4.43;;
76127;SDS011;64873;50.102;14.434;2024-03-22T09:44:48;7.43;;;4.68;;
76127;SDS011;64873;50.102;14.434;2024-03-22T09:47:18;8.98;;;5.10;;
76127;SDS011;64873;50.102;14.434;2024-03-22T09:49:45;10.68;;;5.70;;
76127;SDS011;64873;50.102;14.434;2024-03-22T09:52:13;7.15;;;4.03;;
76127;SDS011;64873;50.102;14.434;2024-03-22T09:54:43;10.20;;;5.72;;
76127;SDS011;64873;50.102;14.434;2024-03-22T09:57:09;10.63;;;5.55;;
76127;SDS011;64873;50.102;14.434;2024-03-22T09:59:38;9.82;;;4.90;;
76127;SDS011;64873;50.102;14.434;2024-03-22T10:02:04;8.65;;;4.45;;
76127;SDS011;64873;50.102;14.434;2024-03-22T10:04:35;10.57;;;4.28;;
76127;SDS011;64873;50.102;14.434;2024-03-22T10:07:02;7.43;;;4.28;;
76127;SDS011;64873;50.102;14.434;2024-03-22T10:09:28;7.50;;;4.03;;
76127;SDS011;64873;50.102;14.434;2024-03-22T10:11:55;8.15;;;4.45;;
76127;SDS011;64873;50.102;14.434;2024-03-22T10:14:21;10.18;;;4.90;;
76127;SDS011;64873;50.102;14.434;2024-03-22T10:16:46;7.60;;;4.53;;
76127;SDS011;64873;50.102;14.434;2024-03-22T10:19:12;8.95;;;4.55;;
76127;SDS011;64873;50.102;14.434;2024-03-22T10:21:37;11.00;;;4.68;;
76127;SDS011;64873;50.102;14.434;2024-03-22T10:24:03;8.15;;;4.10;;
76127;SDS011;64873;50.102;14.434;2024-03-22T10:26:29;8.23;;;5.00;;
76127;SDS011;64873;50.102;14.434;2024-03-22T10:28:54;9.27;;;5.15;;
76127;SDS011;64873;50.102;14.434;2024-03-22T10:31:20;7.50;;;4.53;;
76127;SDS011;64873;50.102;14.434;2024-03-22T10:33:45;10.93;;;4.72;;
76127;SDS011;64873;50.102;14.434;2024-03-22T10:36:11;8.88;;;4.55;;
76127;SDS011;64873;50.102;14.434;2024-03-22T10:38:38;9.43;;;5.45;;
76127;SDS011;64873;50.102;14.434;2024-03-22T10:41:05;8.55;;;5.13;;
76127;SDS011;64873;50.102;14.434;2024-03-22T10:43:31;9.38;;;5.13;;
76127;SDS011;64873;50.102;14.434;2024-03-22T10:45:58;9.80;;;5.35;;
76127;SDS011;64873;50.102;14.434;2024-03-22T10:48:27;6.90;;;4.13;;
76127;SDS011;64873;50.102;14.434;2024-03-22T10:50:55;5.82;;;3.63;;
76127;SDS011;64873;50.102;14.434;2024-03-22T10:53:26;8.95;;;3.90;;
76127;SDS011;64873;50.102;14.434;2024-03-22T10:55:54;6.95;;;3.25;;
76127;SDS011;64873;50.102;14.434;2024-03-22T10:58:22;4.95;;;2.85;;
76127;SDS011;64873;50.102;14.434;2024-03-22T11:00:51;3.88;;;2.45;;
76127;SDS011;64873;50.102;14.434;2024-03-22T11:03:20;4.72;;;2.75;;
76127;SDS011;64873;50.102;14.434;2024-03-22T11:05:48;4.20;;;2.38;;
76127;SDS011;64873;50.102;14.434;2024-03-22T11:08:24;6.68;;;2.72;;
76127;SDS011;64873;50.102;14.434;2024-03-22T11:10:51;5.93;;;2.65;;
76127;SDS011;64873;50.102;14.434;2024-03-22T11:13:17;5.45;;;2.65;;
76127;SDS011;64873;50.102;14.434;2024-03-22T11:15:43;3.50;;;2.05;;
76127;SDS011;64873;50.102;14.434;2024-03-22T11:18:08;6.70;;;2.58;;
76127;SDS011;64873;50.102;14.434;2024-03-22T11:20:37;5.47;;;2.42;;
76127;SDS011;64873;50.102;14.434;2024-03-22T11:23:06;5.78;;;3.47;;
76127;SDS011;64873;50.102;14.434;2024-03-22T11:25:32;8.82;;;3.60;;
76127;SDS011;64873;50.102;14.434;2024-03-22T11:27:58;5.95;;;3.30;;
76127;SDS011;64873;50.102;14.434;2024-03-22T11:30:26;6.95;;;4.10;;
76127;SDS011;64873;50.102;14.434;2024-03-22T11:32:53;7.30;;;4.30;;
76127;SDS011;64873;50.102;14.434;2024-03-22T11:35:19;8.07;;;3.97;;
76127;SDS011;64873;50.102;14.434;2024-03-22T11:37:44;9.52;;;4.88;;
76127;SDS011;64873;50.102;14.434;2024-03-22T11:40:10;9.27;;;5.40;;
76127;SDS011;64873;50.102;14.434;2024-03-22T11:42:40;8.27;;;5.00;;
76127;SDS011;64873;50.102;14.434;2024-03-22T11:45:10;9.98;;;5.03;;
76127;SDS011;64873;50.102;14.434;2024-03-22T11:47:37;10.02;;;5.55;;
76127;SDS011;64873;50.102;14.434;2024-03-22T11:50:02;11.95;;;5.07;;
76127;SDS011;64873;50.102;14.434;2024-03-22T11:52:28;11.38;;;5.82;;
76127;SDS011;64873;50.102;14.434;2024-03-22T11:54:54;10.38;;;5.50;;
76127;SDS011;64873;50.102;14.434;2024-03-22T11:57:21;8.80;;;4.80;;
76127;SDS011;64873;50.102;14.434;2024-03-22T11:59:46;9.50;;;4.85;;
76127;SDS011;64873;50.102;14.434;2024-03-22T12:02:12;9.15;;;5.40;;
76127;SDS011;64873;50.102;14.434;2024-03-22T12:04:41;9.55;;;5.43;;
76127;SDS011;64873;50.102;14.434;2024-03-22T12:07:11;10.93;;;6.18;;
76127;SDS011;64873;50.102;14.434;2024-03-22T12:09:39;10.93;;;6.20;;
76127;SDS011;64873;50.102;14.434;2024-03-22T12:12:06;8.60;;;4.97;;
76127;SDS011;64873;50.102;14.434;2024-03-22T12:14:34;10.02;;;5.32;;
76127;SDS011;64873;50.102;14.434;2024-03-22T12:17:00;9.65;;;5.30;;
76127;SDS011;64873;50.102;14.434;2024-03-22T12:19:27;9.80;;;5.35;;
76127;SDS011;64873;50.102;14.434;2024-03-22T12:21:52;8.77;;;4.97;;
76127;SDS011;64873;50.102;14.434;2024-03-22T12:24:18;9.50;;;5.57;;
76127;SDS011;64873;50.102;14.434;2024-03-22T12:26:43;10.32;;;5.63;;
76127;SDS011;64873;50.102;14.434;2024-03-22T12:29:08;9.75;;;5.65;;
76127;SDS011;64873;50.102;14.434;2024-03-22T12:31:37;9.27;;;5.38;;
76127;SDS011;64873;50.102;14.434;2024-03-22T12:34:02;13.93;;;8.07;;
76127;SDS011;64873;50.102;14.434;2024-03-22T12:36:28;11.82;;;6.35;;
76127;SDS011;64873;50.102;14.434;2024-03-22T12:38:53;12.90;;;6.22;;
76127;SDS011;64873;50.102;14.434;2024-03-22T12:41:19;10.55;;;6.25;;
76127;SDS011;64873;50.102;14.434;2024-03-22T12:43:44;9.75;;;6.30;;
76127;SDS011;64873;50.102;14.434;2024-03-22T12:46:10;10.93;;;6.00;;
76127;SDS011;64873;50.102;14.434;2024-03-22T12:48:35;11.82;;;6.85;;
76127;SDS011;64873;50.102;14.434;2024-03-22T12:51:01;12.57;;;6.90;;
76127;SDS011;64873;50.102;14.434;2024-03-22T12:53:27;11.10;;;6.40;;
76127;SDS011;64873;50.102;14.434;2024-03-22T12:55:52;15.45;;;6.55;;
76127;SDS011;64873;50.102;14.434;2024-03-22T12:58:17;11.35;;;6.03;;
76127;SDS011;64873;50.102;14.434;2024-03-22T13:00:43;12.63;;;6.10;;
76127;SDS011;64873;50.102;14.434;2024-03-22T13:03:08;11.05;;;6.25;;
76127;SDS011;64873;50.102;14.434;2024-03-22T13:05:36;12.93;;;6.53;;
76127;SDS011;64873;50.102;14.434;2024-03-22T13:08:01;12.00;;;6.03;;
76127;SDS011;64873;50.102;14.434;2024-03-22T13:10:27;10.73;;;6.15;;
76127;SDS011;64873;50.102;14.434;2024-03-22T13:12:52;12.68;;;6.80;;
76127;SDS011;64873;50.102;14.434;2024-03-22T13:15:18;14.13;;;7.13;;
76127;SDS011;64873;50.102;14.434;2024-03-22T13:17:43;12.02;;;6.80;;
76127;SDS011;64873;50.102;14.434;2024-03-22T13:20:09;11.45;;;6.25;;
76127;SDS011;64873;50.102;14.434;2024-03-22T13:22:40;12.25;;;6.85;;
76127;SDS011;64873;50.102;14.434;2024-03-22T13:25:06;12.05;;;6.40;;
76127;SDS011;64873;50.102;14.434;2024-03-22T13:27:34;12.20;;;6.70;;
76127;SDS011;64873;50.102;14.434;2024-03-22T13:30:00;11.65;;;7.57;;
76127;SDS011;64873;50.102;14.434;2024-03-22T13:32:28;11.55;;;6.75;;
76127;SDS011;64873;50.102;14.434;2024-03-22T13:34:54;13.45;;;7.68;;
76127;SDS011;64873;50.102;14.434;2024-03-22T13:37:19;10.35;;;6.13;;
76127;SDS011;64873;50.102;14.434;2024-03-22T13:39:50;12.10;;;6.75;;
76127;SDS011;64873;50.102;14.434;2024-03-22T13:42:16;12.60;;;6.28;;
76127;SDS011;64873;50.102;14.434;2024-03-22T13:44:42;13.38;;;6.80;;
76127;SDS011;64873;50.102;14.434;2024-03-22T13:47:07;13.13;;;5.97;;
76127;SDS011;64873;50.102;14.434;2024-03-22T13:49:33;13.88;;;6.03;;
76127;SDS011;64873;50.102;14.434;2024-03-22T13:51:58;12.13;;;6.65;;
76127;SDS011;64873;50.102;14.434;2024-03-22T13:54:24;12.30;;;6.10;;
76127;SDS011;64873;50.102;14.434;2024-03-22T13:56:50;15.02;;;6.43;;
76127;SDS011;64873;50.102;14.434;2024-03-22T13:59:15;12.18;;;6.47;;
76127;SDS011;64873;50.102;14.434;2024-03-22T14:01:41;10.90;;;6.47;;
76127;SDS011;64873;50.102;14.434;2024-03-22T14:04:10;10.82;;;5.80;;
76127;SDS011;64873;50.102;14.434;2024-03-22T14:06:36;10.60;;;6.05;;
76127;SDS011;64873;50.102;14.434;2024-03-22T14:09:03;11.65;;;6.20;;
76127;SDS011;64873;50.102;14.434;2024-03-22T14:11:29;9.13;;;5.82;;
76127;SDS011;64873;50.102;14.434;2024-03-22T14:13:58;12.20;;;6.07;;
76127;SDS011;64873;50.102;14.434;2024-03-22T14:16:23;9.38;;;5.40;;
76127;SDS011;64873;50.102;14.434;2024-03-22T14:18:49;8.77;;;4.95;;